Time;durP1;ratioP1;P1;durP2;ratioP2;P2;SDS_P1;SDS_P2;PMS_P1;PMS_P2;Temp;Humidity;BMP_temperature;BMP_pressure;BME280_temperature;BME280_humidity;BME280_pressure;Samples;Min_cycle;Max_cycle;Signal;HPM_P1;HPM_P2
2023/03/01 00:00:55;;;;;;;40.05;27.90;;;0.70;99.90;;;;;;5112116;28;20200;-50
2023/03/01 00:03:22;;;;;;;43.13;27.75;;;0.70;99.90;;;;;;5112414;28;20204;-50
2023/03/01 00:05:48;;;;;;;36.08;26.23;;;1.00;99.90;;;;;;5112201;28;20202;-50
2023/03/01 00:08:15;;;;;;;36.60;25.77;;;0.70;99.90;;;;;;5111905;28;20197;-50
2023/03/01 00:10:43;;;;;;;38.67;24.45;;;0.60;99.90;;;;;;5113740;28;20194;-50
2023/03/01 00:13:09;;;;;;;36.20;26.23;;;0.80;99.90;;;;;;5115955;28;20235;-50
2023/03/01 00:15:39;;;;;;;36.30;25.85;;;0.50;99.90;;;;;;5115986;28;20205;-50
2023/03/01 00:18:06;;;;;;;43.45;26.45;;;0.70;99.90;;;;;;5115595;28;20218;-50
2023/03/01 00:20:33;;;;;;;34.55;26.17;;;0.20;99.90;;;;;;5115782;28;20193;-50
2023/03/01 00:22:59;;;;;;;37.30;24.33;;;0.60;99.90;;;;;;5115498;28;20732;-50
2023/03/01 00:25:26;;;;;;;34.97;25.05;;;0.70;99.90;;;;;;5115742;28;20562;-50
2023/03/01 00:27:54;;;;;;;38.58;25.02;;;0.60;99.90;;;;;;5115531;28;20190;-50
2023/03/01 00:30:21;;;;;;;35.10;23.80;;;0.60;99.90;;;;;;5115233;28;20190;-50
2023/03/01 00:32:47;;;;;;;42.05;25.08;;;0.60;99.90;;;;;;5115389;28;20221;-50
2023/03/01 00:35:14;;;;;;;40.58;27.23;;;0.70;99.90;;;;;;5097400;28;20212;-50
2023/03/01 00:37:42;;;;;;;38.47;26.05;;;0.80;99.90;;;;;;5115365;28;20202;-50
2023/03/01 00:40:10;;;;;;;34.38;25.00;;;0.80;99.90;;;;;;5115186;28;20702;-49
2023/03/01 00:42:36;;;;;;;39.70;26.30;;;0.50;99.90;;;;;;5096947;28;20209;-51
2023/03/01 00:45:07;;;;;;;33.78;23.58;;;0.00;99.90;;;;;;5097016;28;20204;-50
2023/03/01 00:47:34;;;;;;;35.20;25.30;;;0.50;99.90;;;;;;5115258;28;20249;-51
2023/03/01 00:50:01;;;;;;;36.72;26.38;;;0.50;99.90;;;;;;5114844;28;20211;-50
2023/03/01 00:52:28;;;;;;;37.13;24.52;;;0.70;99.90;;;;;;5115097;28;20222;-51
2023/03/01 00:54:54;;;;;;;38.08;23.92;;;0.60;99.90;;;;;;5115335;28;20246;-51
2023/03/01 00:57:21;;;;;;;39.53;23.25;;;1.00;99.90;;;;;;5096865;28;20194;-51
2023/03/01 00:59:48;;;;;;;28.85;23.88;;;0.30;99.90;;;;;;5114661;28;20204;-51
2023/03/01 01:02:16;;;;;;;40.42;25.52;;;0.30;99.90;;;;;;5115129;28;20209;-51
2023/03/01 01:04:42;;;;;;;32.15;24.00;;;0.50;99.90;;;;;;5096578;28;20224;-51
2023/03/01 01:07:09;;;;;;;37.58;23.85;;;0.50;99.90;;;;;;5114976;28;20708;-52
2023/03/01 01:09:36;;;;;;;33.60;22.92;;;0.60;99.90;;;;;;5114468;28;20196;-52
2023/03/01 01:12:03;;;;;;;30.60;23.65;;;0.70;99.90;;;;;;5114814;28;20228;-51
2023/03/01 01:14:30;;;;;;;37.83;22.33;;;0.00;99.90;;;;;;5114678;28;20220;-50
2023/03/01 01:16:57;;;;;;;33.60;23.90;;;0.50;99.90;;;;;;5096777;28;20330;-51
2023/03/01 01:19:26;;;;;;;40.95;24.45;;;0.30;99.90;;;;;;5096062;28;20401;-51
2023/03/01 01:21:53;;;;;;;27.80;21.30;;;1.00;99.90;;;;;;5095219;28;20197;-51
2023/03/01 01:24:20;;;;;;;31.95;22.70;;;0.40;99.90;;;;;;5114559;28;20227;-50
2023/03/01 01:26:47;;;;;;;32.97;22.02;;;0.20;99.90;;;;;;5096596;28;20632;-51
2023/03/01 01:29:14;;;;;;;31.15;21.15;;;0.50;99.90;;;;;;5114395;28;20203;-51
2023/03/01 01:31:43;;;;;;;24.27;18.20;;;0.50;99.90;;;;;;5096245;28;20236;-50
2023/03/01 01:34:15;;;;;;;25.33;19.58;;;0.40;99.90;;;;;;5096619;28;20224;-50
2023/03/01 01:36:43;;;;;;;35.30;20.38;;;0.30;99.90;;;;;;5115374;28;20207;-51
2023/03/01 01:39:12;;;;;;;27.23;19.02;;;0.40;99.90;;;;;;5114377;28;20307;-51
2023/03/01 01:41:41;;;;;;;29.00;21.50;;;0.30;99.90;;;;;;5096452;28;20591;-50
2023/03/01 01:44:14;;;;;;;29.50;19.90;;;0.50;99.90;;;;;;5114950;28;20223;-50
2023/03/01 01:46:43;;;;;;;32.33;22.92;;;0.60;99.90;;;;;;5114242;28;20564;-50
2023/03/01 01:49:20;;;;;;;30.13;21.45;;;0.60;99.90;;;;;;5113891;28;20202;-51
2023/03/01 01:51:51;;;;;;;34.30;21.85;;;0.30;99.90;;;;;;5114595;28;20194;-50
2023/03/01 01:54:21;;;;;;;33.15;22.20;;;0.30;99.90;;;;;;5114241;28;20210;-51
2023/03/01 01:56:52;;;;;;;31.98;22.15;;;0.40;99.90;;;;;;5095650;28;20211;-50
2023/03/01 01:59:24;;;;;;;33.03;22.38;;;-0.20;99.90;;;;;;5095239;28;20646;-51
2023/03/01 02:01:51;;;;;;;30.40;22.30;;;0.50;99.90;;;;;;5095677;28;20196;-51
2023/03/01 02:04:18;;;;;;;35.78;21.50;;;0.40;99.90;;;;;;5095405;28;20229;-51
2023/03/01 02:06:52;;;;;;;33.63;22.58;;;0.50;99.90;;;;;;5113856;28;20205;-50
2023/03/01 02:09:22;;;;;;;29.88;23.20;;;0.50;99.90;;;;;;5095090;28;20254;-51
2023/03/01 02:11:50;;;;;;;30.15;20.95;;;0.30;99.90;;;;;;5113727;28;20214;-50
2023/03/01 02:14:18;;;;;;;30.33;21.17;;;0.50;99.90;;;;;;5113463;28;20236;-51
2023/03/01 02:16:45;;;;;;;33.83;22.38;;;0.50;99.90;;;;;;5113550;28;20197;-51
2023/03/01 02:19:27;;;;;;;36.45;23.33;;;0.40;99.90;;;;;;5094883;28;20293;-51
2023/03/01 02:22:03;;;;;;;32.42;23.75;;;0.20;99.90;;;;;;5095079;28;20288;-51
2023/03/01 02:24:38;;;;;;;36.22;22.30;;;0.40;99.90;;;;;;5113503;28;20276;-52
2023/03/01 02:27:06;;;;;;;30.42;21.70;;;0.30;99.90;;;;;;5095036;28;20204;-51
2023/03/01 02:29:35;;;;;;;29.90;21.52;;;0.40;99.90;;;;;;5094699;28;20198;-51
2023/03/01 02:32:04;;;;;;;31.40;21.38;;;0.20;99.90;;;;;;5113387;28;20208;-52
2023/03/01 02:34:33;;;;;;;31.70;21.90;;;0.60;99.90;;;;;;5112740;28;20747;-51
2023/03/01 02:37:04;;;;;;;32.35;23.80;;;0.00;99.90;;;;;;5113132;28;20656;-51
2023/03/01 02:39:34;;;;;;;32.33;22.02;;;0.20;99.90;;;;;;5112696;28;20325;-51
2023/03/01 02:42:03;;;;;;;32.00;22.73;;;0.10;99.90;;;;;;5113407;28;20653;-51
2023/03/01 02:44:30;;;;;;;33.60;24.38;;;0.30;99.90;;;;;;5094662;28;20674;-51
2023/03/01 02:47:02;;;;;;;29.75;21.45;;;-0.10;99.90;;;;;;5112883;28;20197;-51
2023/03/01 02:49:31;;;;;;;31.27;22.00;;;0.00;99.90;;;;;;5094427;28;20588;-51
2023/03/01 02:52:26;;;;;;;28.48;22.98;;;-0.50;99.90;;;;;;5113072;28;20239;-51
2023/03/01 02:54:59;;;;;;;35.05;23.25;;;0.10;99.90;;;;;;5094782;28;20211;-51
2023/03/01 02:57:28;;;;;;;30.27;22.05;;;0.00;99.90;;;;;;5094640;28;20695;-51
2023/03/01 02:59:57;;;;;;;35.25;22.98;;;0.00;99.90;;;;;;5094122;28;20235;-51
2023/03/01 03:02:36;;;;;;;28.90;21.75;;;0.10;99.90;;;;;;5094259;28;20202;-51
2023/03/01 03:05:09;;;;;;;36.08;23.60;;;-0.10;99.90;;;;;;5094598;28;20213;-50
2023/03/01 03:07:37;;;;;;;33.10;21.67;;;0.00;99.90;;;;;;5094441;28;20207;-50
2023/03/01 03:10:06;;;;;;;28.27;20.38;;;0.00;99.90;;;;;;5112420;28;20199;-50
2023/03/01 03:12:34;;;;;;;30.88;22.38;;;-0.10;99.90;;;;;;5094255;28;20200;-50
2023/03/01 03:15:00;;;;;;;32.35;22.95;;;0.00;99.90;;;;;;5094621;28;20206;-52
2023/03/01 03:17:28;;;;;;;30.17;21.02;;;-0.10;99.90;;;;;;5094572;28;20303;-50
2023/03/01 03:19:55;;;;;;;35.45;22.17;;;-0.10;99.90;;;;;;5112567;28;20223;-51
2023/03/01 03:22:22;;;;;;;30.67;22.42;;;-0.30;99.90;;;;;;5112731;28;20272;-50
2023/03/01 03:24:48;;;;;;;30.10;23.30;;;-0.40;99.90;;;;;;5094561;28;20198;-50
2023/03/01 03:27:15;;;;;;;33.55;22.55;;;-0.10;99.90;;;;;;5112541;28;20205;-51
2023/03/01 03:29:42;;;;;;;28.05;20.27;;;-0.10;99.90;;;;;;5112543;28;20588;-51
2023/03/01 03:32:08;;;;;;;27.83;20.88;;;-0.60;99.90;;;;;;5112911;28;20199;-50
2023/03/01 03:34:36;;;;;;;28.73;21.33;;;-0.10;99.90;;;;;;5112478;28;20227;-51
2023/03/01 03:37:03;;;;;;;36.33;20.98;;;-0.30;99.90;;;;;;5112475;28;20195;-51
2023/03/01 03:39:34;;;;;;;29.25;19.75;;;-0.10;99.90;;;;;;5093763;28;20224;-51
2023/03/01 03:42:01;;;;;;;31.30;21.65;;;-0.10;99.90;;;;;;5094285;28;20253;-51
2023/03/01 03:44:28;;;;;;;30.55;20.38;;;-0.20;99.90;;;;;;5112614;28;20707;-50
2023/03/01 03:46:54;;;;;;;31.27;22.30;;;-0.30;99.90;;;;;;5116303;28;20196;-51
2023/03/01 03:49:21;;;;;;;36.33;21.67;;;-0.40;99.90;;;;;;5116068;28;20193;-51
2023/03/01 03:51:49;;;;;;;30.25;21.50;;;-0.40;99.90;;;;;;5116450;28;20193;-51
2023/03/01 03:54:16;;;;;;;30.50;21.05;;;-0.30;99.90;;;;;;5116378;28;20208;-50
2023/03/01 03:56:43;;;;;;;25.88;20.20;;;-0.30;99.90;;;;;;5116293;28;20217;-50
2023/03/01 03:59:11;;;;;;;29.55;21.30;;;-0.50;99.90;;;;;;5116088;28;20769;-50
2023/03/01 04:01:37;;;;;;;36.35;21.85;;;-0.30;99.90;;;;;;5116264;28;20200;-51
2023/03/01 04:04:05;;;;;;;33.70;22.25;;;-0.40;99.90;;;;;;5116049;28;20225;-51
2023/03/01 04:06:32;;;;;;;32.35;21.45;;;-0.20;99.90;;;;;;5116056;28;20210;-51
2023/03/01 04:09:02;;;;;;;28.38;21.65;;;-0.20;99.90;;;;;;5115701;28;20252;-51
2023/03/01 04:11:29;;;;;;;26.45;19.98;;;-0.30;99.90;;;;;;5115969;28;20196;-51
2023/03/01 04:13:57;;;;;;;31.33;22.08;;;-0.40;99.90;;;;;;5097443;28;20234;-51
2023/03/01 04:16:25;;;;;;;34.35;21.95;;;-0.40;99.90;;;;;;5115749;28;20580;-51
2023/03/01 04:18:53;;;;;;;35.60;23.35;;;-0.30;99.90;;;;;;5115430;28;20813;-52
2023/03/01 04:21:20;;;;;;;33.63;20.75;;;-0.40;99.90;;;;;;5115878;28;20224;-51
2023/03/01 04:23:46;;;;;;;35.95;22.02;;;-0.70;99.90;;;;;;5115652;28;20303;-52
2023/03/01 04:26:14;;;;;;;27.33;21.23;;;-0.40;99.90;;;;;;5115779;28;20202;-51
2023/03/01 04:28:44;;;;;;;31.20;22.58;;;-0.30;99.90;;;;;;5115470;28;20204;-52
2023/03/01 04:31:15;;;;;;;30.65;20.92;;;-0.30;99.90;;;;;;5115569;28;20235;-51
2023/03/01 04:33:42;;;;;;;32.92;22.20;;;-0.40;99.90;;;;;;5115697;28;20694;-52
2023/03/01 04:36:11;;;;;;;26.60;20.75;;;-0.60;99.90;;;;;;5115570;28;20236;-52
2023/03/01 04:38:38;;;;;;;35.80;22.42;;;-1.00;99.90;;;;;;5115055;28;20214;-50
2023/03/01 04:41:05;;;;;;;28.30;22.13;;;-0.20;99.90;;;;;;5115286;28;20682;-51
2023/03/01 04:43:34;;;;;;;33.70;23.63;;;-0.70;99.90;;;;;;5115187;28;20217;-51
2023/03/01 04:46:05;;;;;;;30.58;22.08;;;-0.60;99.90;;;;;;5115414;28;20196;-53
2023/03/01 04:48:33;;;;;;;32.10;21.23;;;-0.40;99.90;;;;;;5115128;28;20621;-51
2023/03/01 04:51:00;;;;;;;32.90;21.42;;;-0.40;99.90;;;;;;5115129;28;20196;-51
2023/03/01 04:53:29;;;;;;;31.13;21.05;;;-1.10;99.90;;;;;;5115094;28;20613;-51
2023/03/01 04:55:56;;;;;;;34.25;22.40;;;-0.70;99.90;;;;;;5115269;28;20654;-50
2023/03/01 04:58:23;;;;;;;29.00;22.05;;;-0.50;99.90;;;;;;5115241;28;20205;-51
2023/03/01 05:00:51;;;;;;;30.67;21.08;;;-0.50;99.90;;;;;;5115158;28;20190;-51
2023/03/01 05:03:18;;;;;;;30.73;21.60;;;-0.70;99.90;;;;;;5114954;28;20588;-51
2023/03/01 05:05:46;;;;;;;33.35;21.98;;;-0.50;99.90;;;;;;5096762;28;20249;-51
2023/03/01 05:08:17;;;;;;;30.60;22.27;;;-0.80;99.90;;;;;;5114596;28;20194;-51
2023/03/01 05:10:46;;;;;;;38.75;22.23;;;-0.80;99.90;;;;;;5114929;28;20542;-51
2023/03/01 05:13:14;;;;;;;29.17;20.83;;;-0.60;99.90;;;;;;5136521;22;20236;-50
2023/03/01 05:15:41;;;;;;;31.13;20.55;;;-0.60;99.90;;;;;;5095961;28;20198;-51
2023/03/01 05:18:11;;;;;;;30.65;20.52;;;-0.50;99.90;;;;;;5113895;28;20197;-51
2023/03/01 05:20:38;;;;;;;36.05;23.90;;;-0.50;99.90;;;;;;5114061;28;20628;-52
2023/03/01 05:23:05;;;;;;;33.92;22.23;;;-1.30;99.90;;;;;;5095763;28;20206;-50
2023/03/01 05:25:34;;;;;;;33.42;22.20;;;-0.60;99.90;;;;;;5095851;28;20222;-52
2023/03/01 05:28:04;;;;;;;33.00;21.30;;;-0.80;99.90;;;;;;5114227;28;20561;-51
2023/03/01 05:30:32;;;;;;;36.10;22.25;;;-1.40;99.90;;;;;;5113880;28;20218;-52
2023/03/01 05:32:59;;;;;;;32.15;22.48;;;-0.50;99.90;;;;;;5095368;28;20589;-50
2023/03/01 05:35:29;;;;;;;36.38;24.35;;;-0.70;99.90;;;;;;5113667;28;20634;-51
2023/03/01 05:37:56;;;;;;;34.28;23.50;;;-0.90;99.90;;;;;;5095402;28;20294;-51
2023/03/01 05:40:24;;;;;;;34.85;21.60;;;-0.80;99.90;;;;;;5113287;28;20604;-51
2023/03/01 05:42:54;;;;;;;38.75;22.42;;;-0.60;99.90;;;;;;5113930;28;20256;-50
2023/03/01 05:45:22;;;;;;;35.65;23.40;;;-0.80;99.90;;;;;;5113569;28;20195;-51
2023/03/01 05:47:50;;;;;;;37.67;22.67;;;-0.80;99.90;;;;;;5113327;28;20551;-51
2023/03/01 05:50:19;;;;;;;31.73;22.08;;;-0.60;99.90;;;;;;5112951;28;20270;-52
2023/03/01 05:52:49;;;;;;;40.65;23.80;;;-0.80;99.90;;;;;;5113367;28;20190;-51
2023/03/01 05:55:17;;;;;;;34.63;21.40;;;-0.80;99.90;;;;;;5095220;28;20659;-51
2023/03/01 05:57:44;;;;;;;35.63;23.00;;;-0.80;99.90;;;;;;5113707;28;20568;-51
2023/03/01 06:00:16;;;;;;;43.72;23.63;;;-0.90;99.90;;;;;;5112913;28;20666;-51
2023/03/01 06:02:43;;;;;;;39.63;24.08;;;-0.50;99.90;;;;;;5113033;28;20265;-51
2023/03/01 06:05:11;;;;;;;36.63;23.00;;;-0.90;99.90;;;;;;5113032;28;20221;-51
2023/03/01 06:07:38;;;;;;;41.95;23.70;;;-1.20;99.90;;;;;;5112724;28;20206;-51
2023/03/01 06:10:09;;;;;;;33.80;22.65;;;-0.90;99.90;;;;;;5094423;28;20273;-51
2023/03/01 06:12:38;;;;;;;40.72;24.20;;;-0.70;99.90;;;;;;5094652;28;20615;-51
2023/03/01 06:15:05;;;;;;;38.63;26.00;;;-0.50;99.90;;;;;;5112825;28;20635;-51
2023/03/01 06:17:37;;;;;;;42.70;25.08;;;-0.60;99.90;;;;;;5112841;28;20614;-50
2023/03/01 06:20:04;;;;;;;37.28;23.15;;;-0.50;99.90;;;;;;5112424;28;20275;-50
2023/03/01 06:22:31;;;;;;;38.88;22.70;;;-0.50;99.90;;;;;;5094381;28;20212;-50
2023/03/01 06:24:57;;;;;;;43.95;25.10;;;-0.50;99.90;;;;;;5112656;28;20214;-51
2023/03/01 06:27:25;;;;;;;38.63;23.30;;;-1.10;99.90;;;;;;5112747;28;20255;-53
2023/03/01 06:29:52;;;;;;;74.22;24.45;;;-1.10;99.90;;;;;;5112454;28;20195;-51
2023/03/01 06:32:19;;;;;;;31.52;21.63;;;-0.80;99.90;;;;;;5112486;28;20186;-51
2023/03/01 06:34:46;;;;;;;40.35;23.48;;;-0.50;99.90;;;;;;5112638;28;20222;-52
2023/03/01 06:37:12;;;;;;;43.78;25.85;;;-0.40;99.90;;;;;;5112707;28;20205;-51
2023/03/01 06:39:40;;;;;;;41.65;23.52;;;0.10;99.90;;;;;;5112279;28;20214;-51
2023/03/01 06:42:07;;;;;;;36.10;23.58;;;-0.50;99.90;;;;;;5112195;28;20196;-52
2023/03/01 06:44:35;;;;;;;39.15;24.00;;;-0.50;99.90;;;;;;5111961;28;20215;-52
2023/03/01 06:47:03;;;;;;;33.25;24.17;;;-0.20;99.90;;;;;;5112466;28;20580;-52
2023/03/01 06:49:30;;;;;;;37.60;24.80;;;-0.30;99.90;;;;;;5111981;28;20242;-51
2023/03/01 06:51:56;;;;;;;33.80;22.30;;;-0.20;99.90;;;;;;5111474;28;20221;-53
2023/03/01 06:54:24;;;;;;;35.40;23.45;;;-0.20;99.90;;;;;;5112064;28;20229;-51
2023/03/01 06:56:51;;;;;;;40.60;24.58;;;-0.20;99.90;;;;;;5111805;28;20202;-53
2023/03/01 06:59:18;;;;;;;37.22;24.67;;;-0.20;99.90;;;;;;5112014;28;20204;-51
2023/03/01 07:01:46;;;;;;;47.75;25.27;;;-0.20;99.90;;;;;;5112351;28;20640;-52
2023/03/01 07:04:14;;;;;;;37.83;24.52;;;0.00;99.90;;;;;;5111783;28;20227;-53
2023/03/01 07:06:40;;;;;;;41.40;24.13;;;0.10;99.90;;;;;;5093587;28;20205;-52
2023/03/01 07:09:07;;;;;;;36.75;24.48;;;-0.70;99.90;;;;;;5111934;28;20195;-52
2023/03/01 07:11:33;;;;;;;38.53;25.40;;;0.00;99.90;;;;;;5112463;28;20197;-52
2023/03/01 07:14:00;;;;;;;36.30;25.55;;;0.20;99.90;;;;;;5111859;28;20287;-54
2023/03/01 07:16:27;;;;;;;41.33;26.05;;;0.20;99.90;;;;;;5112517;28;20205;-51
2023/03/01 07:18:55;;;;;;;35.35;25.02;;;0.30;99.90;;;;;;5093669;28;20211;-53
2023/03/01 07:21:22;;;;;;;43.10;27.63;;;0.20;99.90;;;;;;5094068;28;20261;-51
2023/03/01 07:23:49;;;;;;;36.50;25.50;;;0.40;99.90;;;;;;5112071;28;20234;-53
2023/03/01 07:26:15;;;;;;;36.33;26.60;;;0.40;99.90;;;;;;5112368;28;20215;-52
2023/03/01 07:28:42;;;;;;;36.42;25.90;;;0.60;99.90;;;;;;5111814;28;20198;-52
2023/03/01 07:31:09;;;;;;;41.80;26.10;;;0.50;99.90;;;;;;5111146;28;20306;-52
2023/03/01 07:33:35;;;;;;;46.85;26.40;;;0.60;99.90;;;;;;5093013;28;20595;-53
2023/03/01 07:36:05;;;;;;;43.47;28.25;;;0.60;99.90;;;;;;5111632;28;20200;-55
2023/03/01 07:38:32;;;;;;;42.50;28.63;;;0.80;99.90;;;;;;5110934;28;20214;-53
2023/03/01 07:41:00;;;;;;;42.45;28.08;;;0.90;99.90;;;;;;5111348;28;20241;-55
2023/03/01 07:43:27;;;;;;;53.22;30.00;;;0.90;99.90;;;;;;5093389;28;20699;-53
2023/03/01 07:45:53;;;;;;;42.42;27.02;;;0.70;99.90;;;;;;5111402;28;20192;-52
2023/03/01 07:48:20;;;;;;;45.10;27.00;;;1.00;99.90;;;;;;5110948;28;20228;-54
2023/03/01 07:50:47;;;;;;;39.50;25.85;;;1.30;99.90;;;;;;5111506;28;20515;-54
2023/03/01 07:53:15;;;;;;;40.95;25.02;;;0.90;99.90;;;;;;5111472;28;20223;-54
2023/03/01 07:55:41;;;;;;;35.95;24.05;;;1.00;99.90;;;;;;5111605;28;20190;-52
2023/03/01 07:58:08;;;;;;;42.90;25.55;;;1.10;99.90;;;;;;5111400;28;20564;-53
2023/03/01 08:00:35;;;;;;;39.58;26.23;;;1.40;99.90;;;;;;5111274;28;20213;-55
2023/03/01 08:03:02;;;;;;;34.60;23.13;;;1.40;99.90;;;;;;5111324;28;20201;-51
2023/03/01 08:05:29;;;;;;;34.78;23.05;;;0.70;99.90;;;;;;5111416;28;20294;-55
2023/03/01 08:07:56;;;;;;;32.45;22.95;;;1.60;99.90;;;;;;5110755;28;20209;-53
2023/03/01 08:10:24;;;;;;;38.55;22.15;;;0.90;99.90;;;;;;5111045;28;20280;-53
2023/03/01 08:12:53;;;;;;;44.45;24.77;;;1.50;99.90;;;;;;5111433;28;20576;-54
2023/03/01 08:15:19;;;;;;;35.90;23.50;;;1.10;99.90;;;;;;5111680;28;20190;-53
2023/03/01 08:17:50;;;;;;;32.60;22.77;;;2.00;99.90;;;;;;5111783;28;20210;-54
2023/03/01 08:20:17;;;;;;;23.58;18.27;;;1.60;99.90;;;;;;5110715;28;20214;-55
2023/03/01 08:22:43;;;;;;;20.45;14.48;;;2.30;99.90;;;;;;5111412;28;20586;-55
2023/03/01 08:25:10;;;;;;;24.23;15.30;;;1.90;99.90;;;;;;5111446;28;20221;-52
2023/03/01 08:27:38;;;;;;;19.25;13.00;;;2.20;99.90;;;;;;5092741;28;20668;-54
2023/03/01 08:30:07;;;;;;;18.95;13.05;;;2.20;99.90;;;;;;5111399;28;20187;-53
2023/03/01 08:32:38;;;;;;;15.70;11.18;;;2.20;99.90;;;;;;5114059;28;20280;-54
2023/03/01 08:35:05;;;;;;;23.20;10.18;;;2.10;99.90;;;;;;5114659;28;20597;-54
2023/03/01 08:37:32;;;;;;;16.52;10.60;;;2.40;99.90;;;;;;5114630;28;20194;-53
2023/03/01 08:39:59;;;;;;;17.25;10.55;;;2.60;99.90;;;;;;5114549;28;20292;-54
2023/03/01 08:42:26;;;;;;;10.57;7.00;;;2.50;99.90;;;;;;5115131;28;20202;-54
2023/03/01 08:44:54;;;;;;;9.73;7.97;;;2.50;99.90;;;;;;5115039;28;20233;-54
2023/03/01 08:47:20;;;;;;;13.27;7.35;;;2.80;99.90;;;;;;5114910;28;20731;-53
2023/03/01 08:49:47;;;;;;;12.88;7.38;;;2.80;99.90;;;;;;5114404;28;20194;-54
2023/03/01 08:52:14;;;;;;;11.00;7.15;;;2.60;99.90;;;;;;5114719;28;20666;-53
2023/03/01 08:54:40;;;;;;;12.02;7.88;;;2.10;99.90;;;;;;5114675;28;20221;-54
2023/03/01 08:57:08;;;;;;;16.55;7.55;;;2.70;99.90;;;;;;5114612;28;20197;-53
2023/03/01 08:59:38;;;;;;;13.63;8.65;;;2.20;99.90;;;;;;5096112;28;20210;-55
2023/03/01 09:02:11;;;;;;;12.57;6.85;;;3.10;99.90;;;;;;5114636;28;20194;-53
2023/03/01 09:04:38;;;;;;;11.65;5.80;;;2.80;99.90;;;;;;5096412;28;20314;-53
2023/03/01 09:07:05;;;;;;;12.25;6.57;;;3.10;99.90;;;;;;5114992;28;20190;-53
2023/03/01 09:09:31;;;;;;;9.93;6.25;;;2.90;99.90;;;;;;5114240;28;20194;-52
2023/03/01 09:11:58;;;;;;;9.70;6.35;;;3.10;99.90;;;;;;5114812;28;20619;-53
2023/03/01 09:14:25;;;;;;;8.77;6.22;;;3.20;99.90;;;;;;5095998;28;20225;-53
2023/03/01 09:16:51;;;;;;;9.18;6.63;;;3.00;99.90;;;;;;5114281;28;20193;-54
2023/03/01 09:19:19;;;;;;;10.85;6.13;;;3.20;99.90;;;;;;5113830;28;20607;-53
2023/03/01 09:21:52;;;;;;;16.25;8.32;;;3.30;99.90;;;;;;5114148;28;20218;-52
2023/03/01 09:24:20;;;;;;;11.20;6.30;;;3.50;99.90;;;;;;5114252;28;20209;-52
2023/03/01 09:26:47;;;;;;;14.20;6.68;;;2.80;99.80;;;;;;5113993;28;20186;-54
2023/03/01 09:29:15;;;;;;;18.63;6.90;;;3.40;99.90;;;;;;5113592;28;20200;-52
2023/03/01 09:31:42;;;;;;;9.90;6.13;;;3.00;99.60;;;;;;5114042;28;20190;-55
2023/03/01 09:34:10;;;;;;;9.52;6.53;;;3.30;99.50;;;;;;5110747;27;20230;-55
2023/03/01 09:36:38;;;;;;;9.73;6.97;;;3.50;99.60;;;;;;5114280;28;20205;-53
2023/03/01 09:39:06;;;;;;;11.63;7.22;;;3.50;99.70;;;;;;5113921;28;20277;-54
2023/03/01 09:41:50;;;;;;;12.07;7.80;;;3.60;99.40;;;;;;5114302;28;20256;-54
2023/03/01 09:44:28;;;;;;;10.90;7.50;;;3.70;99.50;;;;;;5113538;28;20214;-53
2023/03/01 09:46:56;;;;;;;8.80;6.03;;;3.80;99.40;;;;;;5114697;28;20198;-54
2023/03/01 09:49:25;;;;;;;9.52;6.80;;;3.80;98.90;;;;;;5113921;28;20210;-55
2023/03/01 09:52:01;;;;;;;7.32;5.35;;;4.00;98.20;;;;;;5113964;28;20198;-53
2023/03/01 09:54:28;;;;;;;10.23;5.75;;;4.00;98.30;;;;;;5114377;28;20217;-52
2023/03/01 09:57:05;;;;;;;16.20;7.40;;;4.00;98.20;;;;;;5114333;28;20680;-54
2023/03/01 09:59:45;;;;;;;7.63;5.35;;;4.00;98.10;;;;;;5084830;28;20222;-55
2023/03/01 10:02:24;;;;;;;12.45;7.90;;;4.00;97.90;;;;;;5092501;28;20737;-52
2023/03/01 10:04:53;;;;;;;14.80;6.90;;;4.20;97.60;;;;;;5111749;28;20445;-54
2023/03/01 10:07:33;;;;;;;12.75;7.88;;;4.60;97.20;;;;;;5113419;28;20662;-53
2023/03/01 10:10:03;;;;;;;8.27;5.00;;;4.80;97.10;;;;;;5113445;28;20662;-54
2023/03/01 10:12:35;;;;;;;7.43;4.68;;;4.50;96.70;;;;;;5113343;28;20189;-53
2023/03/01 10:15:10;;;;;;;7.70;5.00;;;4.40;96.80;;;;;;5113345;28;20224;-54
2023/03/01 10:17:39;;;;;;;7.82;5.38;;;4.30;96.20;;;;;;5113463;28;20194;-52
2023/03/01 10:20:18;;;;;;;6.55;3.83;;;4.30;96.70;;;;;;5113073;28;20198;-56
2023/03/01 10:22:50;;;;;;;8.73;4.93;;;4.40;96.30;;;;;;5093904;28;20593;-53
2023/03/01 10:25:21;;;;;;;7.40;4.35;;;4.40;95.80;;;;;;5092980;28;20454;-54
2023/03/01 10:27:52;;;;;;;12.52;6.25;;;4.30;95.50;;;;;;5097970;28;20209;-53
2023/03/01 10:30:23;;;;;;;7.90;4.68;;;4.10;94.70;;;;;;5112515;28;20198;-53
2023/03/01 10:32:53;;;;;;;12.02;4.82;;;4.50;94.70;;;;;;5112650;28;20190;-53
2023/03/01 10:35:22;;;;;;;9.82;4.72;;;4.50;94.50;;;;;;5109685;28;20205;-54
2023/03/01 10:38:03;;;;;;;6.43;4.65;;;4.60;94.90;;;;;;5111198;28;20210;-52
2023/03/01 10:40:29;;;;;;;6.00;4.00;;;4.80;95.00;;;;;;5099226;28;20198;-54
2023/03/01 10:42:59;;;;;;;9.07;3.78;;;4.70;95.00;;;;;;5099404;28;20208;-54
2023/03/01 10:45:34;;;;;;;7.38;4.05;;;4.50;94.80;;;;;;5112703;28;20194;-53
2023/03/01 10:48:13;;;;;;;10.15;4.85;;;4.80;94.40;;;;;;5099694;28;20209;-54
2023/03/01 10:50:40;;;;;;;6.43;4.20;;;4.90;94.10;;;;;;5090395;28;20457;-53
2023/03/01 10:53:26;;;;;;;6.95;3.95;;;5.00;93.60;;;;;;5091805;28;20436;-53
2023/03/01 10:56:02;;;;;;;5.20;3.70;;;5.20;92.90;;;;;;5091160;28;20458;-54
2023/03/01 10:58:30;;;;;;;6.97;3.75;;;5.40;92.30;;;;;;5106345;28;20206;-54
2023/03/01 11:01:00;;;;;;;3.90;3.00;;;5.10;91.20;;;;;;5092124;28;20223;-55
2023/03/01 11:03:29;;;;;;;7.13;3.10;;;4.50;90.70;;;;;;5093224;28;20230;-53
2023/03/01 11:05:58;;;;;;;11.52;3.70;;;5.10;91.10;;;;;;5091906;28;20537;-53
2023/03/01 11:08:36;;;;;;;5.85;3.22;;;4.90;90.60;;;;;;5091592;28;20202;-55
2023/03/01 11:11:13;;;;;;;7.35;2.60;;;5.40;90.60;;;;;;5091765;28;20186;-55
2023/03/01 11:13:51;;;;;;;7.00;3.13;;;5.20;87.90;;;;;;5110946;22;20232;-55
2023/03/01 11:16:24;;;;;;;3.47;2.75;;;5.30;88.20;;;;;;5051847;28;20768;-51
2023/03/01 11:18:58;;;;;;;7.25;3.15;;;5.20;87.30;;;;;;5033451;28;20294;-52
2023/03/01 11:21:27;;;;;;;6.20;3.20;;;5.30;88.50;;;;;;5050063;28;20466;-52
2023/03/01 11:23:55;;;;;;;8.17;3.83;;;5.50;86.90;;;;;;5051705;28;20550;-53
2023/03/01 11:26:22;;;;;;;8.03;4.00;;;5.40;86.00;;;;;;5033336;28;20428;-53
2023/03/01 11:28:54;;;;;;;7.93;3.27;;;5.30;86.60;;;;;;5033568;28;20781;-53
2023/03/01 11:31:23;;;;;;;7.32;2.90;;;5.50;87.80;;;;;;5051612;28;20408;-53
2023/03/01 11:33:56;;;;;;;6.22;3.00;;;6.10;86.50;;;;;;5051132;28;20220;-53
2023/03/01 11:36:30;;;;;;;5.45;3.65;;;5.30;85.30;;;;;;5051218;28;20211;-53
2023/03/01 11:39:13;;;;;;;11.00;3.58;;;5.60;85.40;;;;;;5051073;28;20204;-53
2023/03/01 11:41:41;;;;;;;9.32;3.17;;;5.50;84.30;;;;;;5050985;28;20238;-52
2023/03/01 11:44:15;;;;;;;10.40;4.07;;;5.10;83.40;;;;;;5052058;28;20216;-52
2023/03/01 11:46:54;;;;;;;4.40;3.47;;;5.50;83.20;;;;;;5051521;28;20212;-53
2023/03/01 11:49:39;;;;;;;5.28;3.05;;;5.50;82.90;;;;;;5051092;28;20770;-53
2023/03/01 11:52:17;;;;;;;8.60;3.42;;;5.00;82.00;;;;;;5051511;28;20196;-53
2023/03/01 11:54:58;;;;;;;5.07;3.50;;;5.30;82.20;;;;;;5052166;28;20567;-53
2023/03/01 11:57:44;;;;;;;5.97;3.85;;;5.50;81.70;;;;;;5050106;28;20424;-53
2023/03/01 12:00:40;;;;;;;5.60;3.60;;;6.10;80.50;;;;;;5050999;28;20196;-52
2023/03/01 12:03:35;;;;;;;6.40;3.30;;;6.00;80.90;;;;;;5048052;28;20455;-51
2023/03/01 12:06:23;;;;;;;8.43;3.37;;;5.80;78.70;;;;;;5033513;28;20425;-52
2023/03/01 12:08:57;;;;;;;14.90;2.97;;;5.90;79.10;;;;;;5054815;28;20833;-52
2023/03/01 12:11:40;;;;;;;5.63;3.47;;;6.10;79.60;;;;;;5054773;28;20820;-53
2023/03/01 12:14:39;;;;;;;6.20;3.20;;;5.80;79.50;;;;;;5054633;28;21073;-52
2023/03/01 12:17:27;;;;;;;5.60;3.50;;;5.90;77.80;;;;;;5054868;28;20572;-52
2023/03/01 12:20:14;;;;;;;3.70;3.00;;;5.90;76.70;;;;;;5054655;28;20987;-53
2023/03/01 12:22:54;;;;;;;4.90;3.43;;;5.80;77.30;;;;;;5056068;28;20483;-51
2023/03/01 12:25:27;;;;;;;14.50;4.50;;;6.10;76.10;;;;;;5037324;28;20524;-52
2023/03/01 12:28:25;;;;;;;10.07;3.50;;;5.40;77.30;;;;;;5054864;28;20435;-52
2023/03/01 12:31:09;;;;;;;5.70;3.80;;;5.90;75.50;;;;;;5054410;28;20431;-51
2023/03/01 12:33:44;;;;;;;10.33;3.97;;;6.30;75.60;;;;;;5054639;28;20464;-52
2023/03/01 12:36:25;;;;;;;9.60;4.50;;;5.90;75.90;;;;;;5054340;28;20401;-52
2023/03/01 12:39:03;;;;;;;5.30;3.13;;;5.90;76.20;;;;;;5054298;28;20417;-52
2023/03/01 12:41:47;;;;;;;5.20;3.77;;;6.60;76.80;;;;;;5053881;28;20470;-52
2023/03/01 12:44:33;;;;;;;5.77;3.07;;;6.20;76.60;;;;;;5054339;28;20990;-52
2023/03/01 12:47:13;;;;;;;5.80;3.23;;;6.00;75.60;;;;;;5048835;28;20454;-52
2023/03/01 12:49:43;;;;;;;10.53;5.23;;;6.20;74.60;;;;;;5053845;28;20916;-52
2023/03/01 12:52:17;;;;;;;4.17;3.00;;;6.00;72.30;;;;;;5053677;28;20539;-53